sensor_id;sensor_type;location;lat;lon;timestamp;temperature;humidity
23475;DHT22;11910;52.086;21.066;2022-12-18T00:01:19;-2.90;97.10
23475;DHT22;11910;52.086;21.066;2022-12-18T00:03:45;-2.90;97.10
23475;DHT22;11910;52.086;21.066;2022-12-18T00:06:10;-2.90;97.90
23475;DHT22;11910;52.086;21.066;2022-12-18T00:08:36;-2.90;97.40
23475;DHT22;11910;52.086;21.066;2022-12-18T00:11:10;-2.90;97.40
23475;DHT22;11910;52.086;21.066;2022-12-18T00:13:35;-2.90;97.20
23475;DHT22;11910;52.086;21.066;2022-12-18T00:16:02;-2.90;97.50
23475;DHT22;11910;52.086;21.066;2022-12-18T00:18:27;-2.90;97.60
23475;DHT22;11910;52.086;21.066;2022-12-18T00:20:53;-2.90;97.70
23475;DHT22;11910;52.086;21.066;2022-12-18T00:23:18;-2.90;97.40
23475;DHT22;11910;52.086;21.066;2022-12-18T00:25:44;-2.90;97.40
23475;DHT22;11910;52.086;21.066;2022-12-18T00:28:09;-2.90;98.10
23475;DHT22;11910;52.086;21.066;2022-12-18T00:30:35;-2.80;97.70
23475;DHT22;11910;52.086;21.066;2022-12-18T00:33:00;-2.80;97.20
23475;DHT22;11910;52.086;21.066;2022-12-18T00:35:26;-2.70;97.60
23475;DHT22;11910;52.086;21.066;2022-12-18T00:37:51;-2.70;97.50
23475;DHT22;11910;52.086;21.066;2022-12-18T00:40:17;-2.70;97.50
23475;DHT22;11910;52.086;21.066;2022-12-18T00:42:42;-2.70;97.70
23475;DHT22;11910;52.086;21.066;2022-12-18T00:45:27;-2.60;98.20
23475;DHT22;11910;52.086;21.066;2022-12-18T00:47:52;-2.60;97.50
23475;DHT22;11910;52.086;21.066;2022-12-18T00:50:18;-2.60;97.40
23475;DHT22;11910;52.086;21.066;2022-12-18T00:52:44;-2.60;97.40
23475;DHT22;11910;52.086;21.066;2022-12-18T00:55:09;-2.50;97.50
23475;DHT22;11910;52.086;21.066;2022-12-18T00:57:35;-2.50;97.50
23475;DHT22;11910;52.086;21.066;2022-12-18T01:00:01;-2.50;97.60
23475;DHT22;11910;52.086;21.066;2022-12-18T01:02:26;-2.40;97.30
23475;DHT22;11910;52.086;21.066;2022-12-18T01:04:52;-2.50;97.00
23475;DHT22;11910;52.086;21.066;2022-12-18T01:07:17;-2.40;98.10
23475;DHT22;11910;52.086;21.066;2022-12-18T01:09:43;-2.40;97.30
23475;DHT22;11910;52.086;21.066;2022-12-18T01:12:08;-2.40;97.30
23475;DHT22;11910;52.086;21.066;2022-12-18T01:14:34;-2.40;97.30
23475;DHT22;11910;52.086;21.066;2022-12-18T01:16:59;-2.40;97.90
23475;DHT22;11910;52.086;21.066;2022-12-18T01:19:25;-2.40;97.70
23475;DHT22;11910;52.086;21.066;2022-12-18T01:21:50;-2.30;97.60
23475;DHT22;11910;52.086;21.066;2022-12-18T01:24:15;-2.40;97.30
23475;DHT22;11910;52.086;21.066;2022-12-18T01:26:41;-2.40;97.10
23475;DHT22;11910;52.086;21.066;2022-12-18T01:29:06;-2.40;97.30
23475;DHT22;11910;52.086;21.066;2022-12-18T01:31:33;-2.40;97.20
23475;DHT22;11910;52.086;21.066;2022-12-18T01:34:03;-2.40;97.40
23475;DHT22;11910;52.086;21.066;2022-12-18T01:36:29;-2.40;97.00
23475;DHT22;11910;52.086;21.066;2022-12-18T01:38:55;-2.40;97.40
23475;DHT22;11910;52.086;21.066;2022-12-18T01:41:25;-2.40;97.30
23475;DHT22;11910;52.086;21.066;2022-12-18T01:43:52;-2.40;97.30
23475;DHT22;11910;52.086;21.066;2022-12-18T01:46:19;-2.30;97.80
23475;DHT22;11910;52.086;21.066;2022-12-18T01:48:47;-2.30;97.00
23475;DHT22;11910;52.086;21.066;2022-12-18T01:51:13;-2.30;97.00
23475;DHT22;11910;52.086;21.066;2022-12-18T01:53:39;-2.30;97.60
23475;DHT22;11910;52.086;21.066;2022-12-18T01:56:05;-2.20;98.00
23475;DHT22;11910;52.086;21.066;2022-12-18T02:01:08;-2.10;97.50
23475;DHT22;11910;52.086;21.066;2022-12-18T02:03:34;-2.10;96.80
23475;DHT22;11910;52.086;21.066;2022-12-18T02:06:10;-2.10;97.00
23475;DHT22;11910;52.086;21.066;2022-12-18T02:14:04;-2.10;96.60
23475;DHT22;11910;52.086;21.066;2022-12-18T02:16:39;-2.10;96.80
23475;DHT22;11910;52.086;21.066;2022-12-18T02:19:15;-2.10;97.10
23475;DHT22;11910;52.086;21.066;2022-12-18T02:26:48;-2.10;97.10
23475;DHT22;11910;52.086;21.066;2022-12-18T02:29:16;-2.10;97.10
23475;DHT22;11910;52.086;21.066;2022-12-18T02:31:44;-2.10;97.00
23475;DHT22;11910;52.086;21.066;2022-12-18T02:34:10;-2.10;97.10
23475;DHT22;11910;52.086;21.066;2022-12-18T02:36:38;-2.10;96.80
23475;DHT22;11910;52.086;21.066;2022-12-18T02:39:05;-2.00;96.70
23475;DHT22;11910;52.086;21.066;2022-12-18T02:41:32;-2.00;96.90
23475;DHT22;11910;52.086;21.066;2022-12-18T02:44:01;-1.90;96.90
23475;DHT22;11910;52.086;21.066;2022-12-18T02:46:35;-1.90;97.50
23475;DHT22;11910;52.086;21.066;2022-12-18T02:49:22;-1.90;96.60
23475;DHT22;11910;52.086;21.066;2022-12-18T02:56:51;-1.90;96.40
23475;DHT22;11910;52.086;21.066;2022-12-18T02:59:25;-1.90;96.90
23475;DHT22;11910;52.086;21.066;2022-12-18T03:01:59;-1.90;96.60
23475;DHT22;11910;52.086;21.066;2022-12-18T03:04:30;-1.90;96.30
23475;DHT22;11910;52.086;21.066;2022-12-18T03:06:58;-1.90;96.40
23475;DHT22;11910;52.086;21.066;2022-12-18T03:09:38;-1.90;97.10
23475;DHT22;11910;52.086;21.066;2022-12-18T03:12:07;-1.90;97.20
23475;DHT22;11910;52.086;21.066;2022-12-18T03:17:27;-1.90;96.90
23475;DHT22;11910;52.086;21.066;2022-12-18T03:19:54;-1.90;96.80
23475;DHT22;11910;52.086;21.066;2022-12-18T03:22:22;-1.90;96.50
23475;DHT22;11910;52.086;21.066;2022-12-18T03:24:48;-1.90;96.90
23475;DHT22;11910;52.086;21.066;2022-12-18T03:27:14;-1.90;96.30
23475;DHT22;11910;52.086;21.066;2022-12-18T03:29:44;-1.90;96.30
23475;DHT22;11910;52.086;21.066;2022-12-18T03:32:13;-2.00;96.80
23475;DHT22;11910;52.086;21.066;2022-12-18T03:34:41;-2.00;96.50
23475;DHT22;11910;52.086;21.066;2022-12-18T03:37:07;-2.00;96.40
23475;DHT22;11910;52.086;21.066;2022-12-18T03:39:33;-2.10;96.40
23475;DHT22;11910;52.086;21.066;2022-12-18T03:47:09;-2.10;96.40
23475;DHT22;11910;52.086;21.066;2022-12-18T03:52:25;-2.10;96.50
23475;DHT22;11910;52.086;21.066;2022-12-18T03:54:53;-2.20;96.50
23475;DHT22;11910;52.086;21.066;2022-12-18T03:57:20;-2.10;97.10
23475;DHT22;11910;52.086;21.066;2022-12-18T03:59:47;-2.10;96.90
23475;DHT22;11910;52.086;21.066;2022-12-18T04:02:14;-2.10;96.60
23475;DHT22;11910;52.086;21.066;2022-12-18T04:04:41;-2.20;96.10
23475;DHT22;11910;52.086;21.066;2022-12-18T04:07:07;-2.20;96.30
23475;DHT22;11910;52.086;21.066;2022-12-18T04:09:32;-2.20;96.90
23475;DHT22;11910;52.086;21.066;2022-12-18T04:11:59;-2.20;96.20
23475;DHT22;11910;52.086;21.066;2022-12-18T04:14:25;-2.20;96.50
23475;DHT22;11910;52.086;21.066;2022-12-18T04:16:50;-2.30;96.60
23475;DHT22;11910;52.086;21.066;2022-12-18T04:19:16;-2.30;96.50
23475;DHT22;11910;52.086;21.066;2022-12-18T04:21:41;-2.30;96.50
23475;DHT22;11910;52.086;21.066;2022-12-18T04:24:07;-2.30;96.40
23475;DHT22;11910;52.086;21.066;2022-12-18T04:26:32;-2.30;96.30
23475;DHT22;11910;52.086;21.066;2022-12-18T04:28:58;-2.30;96.60
23475;DHT22;11910;52.086;21.066;2022-12-18T04:31:23;-2.30;96.60
23475;DHT22;11910;52.086;21.066;2022-12-18T04:33:49;-2.30;96.40
23475;DHT22;11910;52.086;21.066;2022-12-18T04:36:14;-2.40;96.10
23475;DHT22;11910;52.086;21.066;2022-12-18T04:38:40;-2.40;96.20
23475;DHT22;11910;52.086;21.066;2022-12-18T04:41:05;-2.40;96.40
23475;DHT22;11910;52.086;21.066;2022-12-18T04:43:31;-2.40;96.40
23475;DHT22;11910;52.086;21.066;2022-12-18T04:46:07;-2.50;96.50
23475;DHT22;11910;52.086;21.066;2022-12-18T04:48:33;-2.50;96.20
23475;DHT22;11910;52.086;21.066;2022-12-18T04:50:58;-2.50;96.20
23475;DHT22;11910;52.086;21.066;2022-12-18T04:53:24;-2.60;96.40
23475;DHT22;11910;52.086;21.066;2022-12-18T04:55:49;-2.60;96.20
23475;DHT22;11910;52.086;21.066;2022-12-18T04:58:15;-2.70;96.40
23475;DHT22;11910;52.086;21.066;2022-12-18T05:00:41;-2.70;96.90
23475;DHT22;11910;52.086;21.066;2022-12-18T05:03:06;-2.70;96.50
23475;DHT22;11910;52.086;21.066;2022-12-18T05:05:34;-2.70;96.40
23475;DHT22;11910;52.086;21.066;2022-12-18T05:07:59;-2.80;96.50
23475;DHT22;11910;52.086;21.066;2022-12-18T05:10:25;-2.80;96.90
23475;DHT22;11910;52.086;21.066;2022-12-18T05:12:50;-2.80;97.20
23475;DHT22;11910;52.086;21.066;2022-12-18T05:15:28;-2.80;96.40
23475;DHT22;11910;52.086;21.066;2022-12-18T05:17:54;-2.90;96.30
23475;DHT22;11910;52.086;21.066;2022-12-18T05:20:20;-3.00;96.50
23475;DHT22;11910;52.086;21.066;2022-12-18T05:22:45;-3.00;96.40
23475;DHT22;11910;52.086;21.066;2022-12-18T05:25:10;-3.10;96.30
23475;DHT22;11910;52.086;21.066;2022-12-18T05:27:36;-3.20;96.50
23475;DHT22;11910;52.086;21.066;2022-12-18T05:30:01;-3.30;96.60
23475;DHT22;11910;52.086;21.066;2022-12-18T05:32:27;-3.30;97.00
23475;DHT22;11910;52.086;21.066;2022-12-18T05:34:52;-3.30;97.00
23475;DHT22;11910;52.086;21.066;2022-12-18T05:37:18;-3.40;96.90
23475;DHT22;11910;52.086;21.066;2022-12-18T05:39:43;-3.50;97.30
23475;DHT22;11910;52.086;21.066;2022-12-18T05:42:09;-3.50;97.30
23475;DHT22;11910;52.086;21.066;2022-12-18T05:44:35;-3.50;97.50
23475;DHT22;11910;52.086;21.066;2022-12-18T05:47:00;-3.50;97.40
23475;DHT22;11910;52.086;21.066;2022-12-18T05:49:26;-3.50;97.60
23475;DHT22;11910;52.086;21.066;2022-12-18T05:51:51;-3.50;97.40
23475;DHT22;11910;52.086;21.066;2022-12-18T05:54:17;-3.50;97.90
23475;DHT22;11910;52.086;21.066;2022-12-18T05:56:42;-3.50;97.70
23475;DHT22;11910;52.086;21.066;2022-12-18T05:59:08;-3.50;98.10
23475;DHT22;11910;52.086;21.066;2022-12-18T06:01:33;-3.40;97.90
23475;DHT22;11910;52.086;21.066;2022-12-18T06:03:59;-3.40;98.10
23475;DHT22;11910;52.086;21.066;2022-12-18T06:06:25;-3.30;97.90
23475;DHT22;11910;52.086;21.066;2022-12-18T06:08:51;-3.30;98.00
23475;DHT22;11910;52.086;21.066;2022-12-18T06:11:18;-3.20;97.90
23475;DHT22;11910;52.086;21.066;2022-12-18T06:13:44;-3.20;97.80
23475;DHT22;11910;52.086;21.066;2022-12-18T06:16:09;-3.10;98.00
23475;DHT22;11910;52.086;21.066;2022-12-18T06:18:35;-3.00;97.90
23475;DHT22;11910;52.086;21.066;2022-12-18T06:21:01;-3.00;97.60
23475;DHT22;11910;52.086;21.066;2022-12-18T06:23:27;-2.90;97.80
23475;DHT22;11910;52.086;21.066;2022-12-18T06:25:52;-2.90;97.60
23475;DHT22;11910;52.086;21.066;2022-12-18T06:28:18;-2.90;97.40
23475;DHT22;11910;52.086;21.066;2022-12-18T06:30:44;-2.90;97.40
23475;DHT22;11910;52.086;21.066;2022-12-18T06:33:10;-2.90;97.50
23475;DHT22;11910;52.086;21.066;2022-12-18T06:35:35;-2.90;97.70
23475;DHT22;11910;52.086;21.066;2022-12-18T06:38:01;-2.90;97.40
23475;DHT22;11910;52.086;21.066;2022-12-18T06:40:27;-2.90;97.40
23475;DHT22;11910;52.086;21.066;2022-12-18T06:42:52;-2.90;97.50
23475;DHT22;11910;52.086;21.066;2022-12-18T06:45:18;-2.90;97.30
23475;DHT22;11910;52.086;21.066;2022-12-18T06:47:43;-2.90;97.40
23475;DHT22;11910;52.086;21.066;2022-12-18T06:50:09;-2.90;97.50
23475;DHT22;11910;52.086;21.066;2022-12-18T06:52:34;-2.90;97.50
23475;DHT22;11910;52.086;21.066;2022-12-18T06:55:00;-3.00;97.30
23475;DHT22;11910;52.086;21.066;2022-12-18T06:57:25;-3.00;97.40
23475;DHT22;11910;52.086;21.066;2022-12-18T06:59:51;-3.00;97.50
23475;DHT22;11910;52.086;21.066;2022-12-18T07:02:16;-3.00;97.70
23475;DHT22;11910;52.086;21.066;2022-12-18T07:04:42;-2.90;97.60
23475;DHT22;11910;52.086;21.066;2022-12-18T07:07:08;-2.90;97.70
23475;DHT22;11910;52.086;21.066;2022-12-18T07:09:33;-2.80;97.90
23475;DHT22;11910;52.086;21.066;2022-12-18T07:11:59;-2.70;97.50
23475;DHT22;11910;52.086;21.066;2022-12-18T07:14:24;-2.70;97.30
23475;DHT22;11910;52.086;21.066;2022-12-18T07:16:50;-2.70;97.40
23475;DHT22;11910;52.086;21.066;2022-12-18T07:19:15;-2.70;97.20
23475;DHT22;11910;52.086;21.066;2022-12-18T07:21:41;-2.70;97.10
23475;DHT22;11910;52.086;21.066;2022-12-18T07:24:06;-2.70;97.20
23475;DHT22;11910;52.086;21.066;2022-12-18T07:26:32;-2.70;97.10
23475;DHT22;11910;52.086;21.066;2022-12-18T07:28:58;-2.70;97.40
23475;DHT22;11910;52.086;21.066;2022-12-18T07:31:23;-2.60;97.40
23475;DHT22;11910;52.086;21.066;2022-12-18T07:33:49;-2.60;97.20
23475;DHT22;11910;52.086;21.066;2022-12-18T07:36:15;-2.60;97.60
23475;DHT22;11910;52.086;21.066;2022-12-18T07:38:41;-2.50;97.10
23475;DHT22;11910;52.086;21.066;2022-12-18T07:41:08;-2.60;97.20
23475;DHT22;11910;52.086;21.066;2022-12-18T07:43:34;-2.50;97.10
23475;DHT22;11910;52.086;21.066;2022-12-18T07:46:00;-2.50;97.50
23475;DHT22;11910;52.086;21.066;2022-12-18T07:48:25;-2.50;97.20
23475;DHT22;11910;52.086;21.066;2022-12-18T07:50:51;-2.50;96.70
23475;DHT22;11910;52.086;21.066;2022-12-18T07:53:17;-2.50;97.10
23475;DHT22;11910;52.086;21.066;2022-12-18T07:55:42;-2.50;97.10
23475;DHT22;11910;52.086;21.066;2022-12-18T07:58:08;-2.50;97.50
23475;DHT22;11910;52.086;21.066;2022-12-18T08:00:34;-2.40;97.30
23475;DHT22;11910;52.086;21.066;2022-12-18T08:02:59;-2.30;97.20
23475;DHT22;11910;52.086;21.066;2022-12-18T08:05:25;-2.30;97.00
23475;DHT22;11910;52.086;21.066;2022-12-18T08:07:50;-2.20;96.80
23475;DHT22;11910;52.086;21.066;2022-12-18T08:10:16;-2.10;96.70
23475;DHT22;11910;52.086;21.066;2022-12-18T08:12:41;-2.10;96.50
23475;DHT22;11910;52.086;21.066;2022-12-18T08:15:07;-2.10;96.40
23475;DHT22;11910;52.086;21.066;2022-12-18T08:17:34;-2.10;97.10
23475;DHT22;11910;52.086;21.066;2022-12-18T08:19:59;-2.00;96.50
23475;DHT22;11910;52.086;21.066;2022-12-18T08:22:25;-2.10;96.10
23475;DHT22;11910;52.086;21.066;2022-12-18T08:24:50;-2.10;96.10
23475;DHT22;11910;52.086;21.066;2022-12-18T08:27:16;-2.20;96.20
23475;DHT22;11910;52.086;21.066;2022-12-18T08:29:41;-2.10;96.20
23475;DHT22;11910;52.086;21.066;2022-12-18T08:32:07;-2.10;96.50
23475;DHT22;11910;52.086;21.066;2022-12-18T08:34:32;-2.00;96.70
23475;DHT22;11910;52.086;21.066;2022-12-18T08:36:58;-1.90;96.50
23475;DHT22;11910;52.086;21.066;2022-12-18T08:39:23;-1.90;96.40
23475;DHT22;11910;52.086;21.066;2022-12-18T08:41:49;-1.90;96.30
23475;DHT22;11910;52.086;21.066;2022-12-18T08:44:33;-1.80;96.00
23475;DHT22;11910;52.086;21.066;2022-12-18T08:47:06;-1.90;96.00
23475;DHT22;11910;52.086;21.066;2022-12-18T08:49:32;-2.00;96.30
23475;DHT22;11910;52.086;21.066;2022-12-18T08:51:57;-2.00;96.10
23475;DHT22;11910;52.086;21.066;2022-12-18T08:54:23;-2.10;95.90
23475;DHT22;11910;52.086;21.066;2022-12-18T08:56:49;-2.00;96.30
23475;DHT22;11910;52.086;21.066;2022-12-18T08:59:15;-2.10;95.80
23475;DHT22;11910;52.086;21.066;2022-12-18T09:01:41;-2.10;95.80
23475;DHT22;11910;52.086;21.066;2022-12-18T09:04:07;-2.10;96.00
23475;DHT22;11910;52.086;21.066;2022-12-18T09:06:32;-2.00;95.80
23475;DHT22;11910;52.086;21.066;2022-12-18T09:08:58;-2.00;95.80
23475;DHT22;11910;52.086;21.066;2022-12-18T09:11:24;-1.90;95.90
23475;DHT22;11910;52.086;21.066;2022-12-18T09:13:50;-1.90;95.90
23475;DHT22;11910;52.086;21.066;2022-12-18T09:16:16;-1.90;95.70
23475;DHT22;11910;52.086;21.066;2022-12-18T09:18:42;-1.80;95.60
23475;DHT22;11910;52.086;21.066;2022-12-18T09:21:14;-1.80;95.70
23475;DHT22;11910;52.086;21.066;2022-12-18T09:23:40;-1.80;95.50
23475;DHT22;11910;52.086;21.066;2022-12-18T09:26:06;-1.80;95.40
23475;DHT22;11910;52.086;21.066;2022-12-18T09:28:31;-1.70;95.30
23475;DHT22;11910;52.086;21.066;2022-12-18T09:30:57;-1.70;95.40
23475;DHT22;11910;52.086;21.066;2022-12-18T09:33:26;-1.70;95.20
23475;DHT22;11910;52.086;21.066;2022-12-18T09:35:53;-1.80;95.20
23475;DHT22;11910;52.086;21.066;2022-12-18T09:38:19;-1.90;95.30
23475;DHT22;11910;52.086;21.066;2022-12-18T09:40:46;-1.90;96.20
23475;DHT22;11910;52.086;21.066;2022-12-18T09:43:15;-1.80;95.70
23475;DHT22;11910;52.086;21.066;2022-12-18T09:45:43;-1.70;95.50
23475;DHT22;11910;52.086;21.066;2022-12-18T09:48:10;-1.70;95.10
23475;DHT22;11910;52.086;21.066;2022-12-18T09:50:42;-1.60;95.40
23475;DHT22;11910;52.086;21.066;2022-12-18T09:53:12;-1.60;95.30
23475;DHT22;11910;52.086;21.066;2022-12-18T09:55:41;-1.60;95.30
23475;DHT22;11910;52.086;21.066;2022-12-18T10:00:39;-1.50;95.00
23475;DHT22;11910;52.086;21.066;2022-12-18T10:03:11;-1.50;94.70
23475;DHT22;11910;52.086;21.066;2022-12-18T10:17:58;-1.50;94.60
23475;DHT22;11910;52.086;21.066;2022-12-18T10:21:09;-1.50;95.00
23475;DHT22;11910;52.086;21.066;2022-12-18T10:28:10;-1.60;94.90
23475;DHT22;11910;52.086;21.066;2022-12-18T10:30:37;-1.70;95.10
23475;DHT22;11910;52.086;21.066;2022-12-18T10:33:03;-1.60;95.00
23475;DHT22;11910;52.086;21.066;2022-12-18T10:35:29;-1.80;95.10
23475;DHT22;11910;52.086;21.066;2022-12-18T10:38:02;-1.70;95.40
23475;DHT22;11910;52.086;21.066;2022-12-18T10:40:28;-1.50;95.40
23475;DHT22;11910;52.086;21.066;2022-12-18T10:43:04;-1.40;95.30
23475;DHT22;11910;52.086;21.066;2022-12-18T10:45:30;-1.40;94.60
23475;DHT22;11910;52.086;21.066;2022-12-18T10:47:56;-1.30;95.00
23475;DHT22;11910;52.086;21.066;2022-12-18T10:50:35;-1.20;94.50
23475;DHT22;11910;52.086;21.066;2022-12-18T10:53:03;-1.30;94.30
23475;DHT22;11910;52.086;21.066;2022-12-18T10:55:38;-1.30;94.40
23475;DHT22;11910;52.086;21.066;2022-12-18T10:58:20;-1.40;94.40
23475;DHT22;11910;52.086;21.066;2022-12-18T11:01:01;-1.50;94.60
23475;DHT22;11910;52.086;21.066;2022-12-18T11:04:01;-1.40;94.80
23475;DHT22;11910;52.086;21.066;2022-12-18T11:06:19;-1.40;94.80
23475;DHT22;11910;52.086;21.066;2022-12-18T11:09:03;-1.30;94.70
23475;DHT22;11910;52.086;21.066;2022-12-18T11:11:29;-1.30;94.90
23475;DHT22;11910;52.086;21.066;2022-12-18T11:14:03;-1.10;94.70
23475;DHT22;11910;52.086;21.066;2022-12-18T11:16:30;-1.10;94.00
23475;DHT22;11910;52.086;21.066;2022-12-18T11:21:42;-1.10;94.10
23475;DHT22;11910;52.086;21.066;2022-12-18T11:24:15;-1.10;94.10
23475;DHT22;11910;52.086;21.066;2022-12-18T11:26:44;-1.10;93.90
23475;DHT22;11910;52.086;21.066;2022-12-18T11:29:10;-1.10;93.90
23475;DHT22;11910;52.086;21.066;2022-12-18T11:31:36;-1.10;94.00
23475;DHT22;11910;52.086;21.066;2022-12-18T11:34:07;-1.10;94.40
23475;DHT22;11910;52.086;21.066;2022-12-18T11:36:39;-1.20;94.30
23475;DHT22;11910;52.086;21.066;2022-12-18T11:39:09;-1.20;93.90
23475;DHT22;11910;52.086;21.066;2022-12-18T11:41:42;-1.10;94.60
23475;DHT22;11910;52.086;21.066;2022-12-18T11:49:47;-0.70;93.50
23475;DHT22;11910;52.086;21.066;2022-12-18T11:52:27;-0.60;94.00
23475;DHT22;11910;52.086;21.066;2022-12-18T11:54:56;-0.60;93.50
23475;DHT22;11910;52.086;21.066;2022-12-18T12:00:15;-0.60;93.20
23475;DHT22;11910;52.086;21.066;2022-12-18T12:05:28;-0.60;93.60
23475;DHT22;11910;52.086;21.066;2022-12-18T12:10:40;-0.40;93.30
23475;DHT22;11910;52.086;21.066;2022-12-18T12:16:06;-0.30;92.90
23475;DHT22;11910;52.086;21.066;2022-12-18T12:23:40;-0.50;93.10
23475;DHT22;11910;52.086;21.066;2022-12-18T12:26:14;-0.50;92.80
23475;DHT22;11910;52.086;21.066;2022-12-18T12:31:16;-0.40;92.90
23475;DHT22;11910;52.086;21.066;2022-12-18T12:39:01;-0.50;92.20
23475;DHT22;11910;52.086;21.066;2022-12-18T12:41:30;-0.40;93.20
23475;DHT22;11910;52.086;21.066;2022-12-18T12:44:16;-0.50;93.30
23475;DHT22;11910;52.086;21.066;2022-12-18T12:46:44;-0.50;93.30
23475;DHT22;11910;52.086;21.066;2022-12-18T12:49:14;-0.50;92.50
23475;DHT22;11910;52.086;21.066;2022-12-18T12:51:41;-0.50;93.30
23475;DHT22;11910;52.086;21.066;2022-12-18T12:54:15;-0.60;93.20
23475;DHT22;11910;52.086;21.066;2022-12-18T13:07:20;-0.80;93.30
23475;DHT22;11910;52.086;21.066;2022-12-18T13:12:33;-0.80;93.80
23475;DHT22;11910;52.086;21.066;2022-12-18T13:15:21;-0.80;93.80
23475;DHT22;11910;52.086;21.066;2022-12-18T13:17:47;-0.70;94.00
23475;DHT22;11910;52.086;21.066;2022-12-18T13:20:14;-0.80;94.20
23475;DHT22;11910;52.086;21.066;2022-12-18T13:22:47;-0.80;93.40
23475;DHT22;11910;52.086;21.066;2022-12-18T13:28:02;-0.80;94.30
23475;DHT22;11910;52.086;21.066;2022-12-18T13:35:52;-1.10;94.00
23475;DHT22;11910;52.086;21.066;2022-12-18T13:43:43;-1.30;94.40
23475;DHT22;11910;52.086;21.066;2022-12-18T13:48:27;-1.30;94.50
23475;DHT22;11910;52.086;21.066;2022-12-18T13:50:55;-1.30;95.10
23475;DHT22;11910;52.086;21.066;2022-12-18T13:53:26;-1.20;94.50
23475;DHT22;11910;52.086;21.066;2022-12-18T13:55:52;-1.20;94.30
23475;DHT22;11910;52.086;21.066;2022-12-18T13:58:18;-1.30;94.60
23475;DHT22;11910;52.086;21.066;2022-12-18T14:00:44;-1.30;94.50
23475;DHT22;11910;52.086;21.066;2022-12-18T14:03:28;-1.30;94.80
23475;DHT22;11910;52.086;21.066;2022-12-18T14:06:03;-1.20;94.90
23475;DHT22;11910;52.086;21.066;2022-12-18T14:08:36;-1.20;94.40
23475;DHT22;11910;52.086;21.066;2022-12-18T14:11:03;-1.30;94.50
23475;DHT22;11910;52.086;21.066;2022-12-18T14:13:30;-1.30;94.50
23475;DHT22;11910;52.086;21.066;2022-12-18T14:15:56;-1.40;94.60
23475;DHT22;11910;52.086;21.066;2022-12-18T14:21:14;-1.50;95.00
23475;DHT22;11910;52.086;21.066;2022-12-18T14:23:42;-1.50;95.20
23475;DHT22;11910;52.086;21.066;2022-12-18T14:26:20;-1.50;94.60
23475;DHT22;11910;52.086;21.066;2022-12-18T14:28:46;-1.50;95.00
23475;DHT22;11910;52.086;21.066;2022-12-18T14:31:22;-1.60;94.80
23475;DHT22;11910;52.086;21.066;2022-12-18T14:33:48;-1.60;94.90
23475;DHT22;11910;52.086;21.066;2022-12-18T14:36:16;-1.60;94.80
23475;DHT22;11910;52.086;21.066;2022-12-18T14:38:42;-1.70;95.20
23475;DHT22;11910;52.086;21.066;2022-12-18T14:41:11;-1.60;94.70
23475;DHT22;11910;52.086;21.066;2022-12-18T14:43:37;-1.70;94.80
23475;DHT22;11910;52.086;21.066;2022-12-18T14:46:04;-1.60;95.40
23475;DHT22;11910;52.086;21.066;2022-12-18T14:48:40;-1.60;95.40
23475;DHT22;11910;52.086;21.066;2022-12-18T14:51:12;-1.50;95.40
23475;DHT22;11910;52.086;21.066;2022-12-18T14:53:43;-1.60;95.20
23475;DHT22;11910;52.086;21.066;2022-12-18T14:56:22;-1.50;94.70
23475;DHT22;11910;52.086;21.066;2022-12-18T14:58:49;-1.60;95.00
23475;DHT22;11910;52.086;21.066;2022-12-18T15:01:23;-1.50;94.90
23475;DHT22;11910;52.086;21.066;2022-12-18T15:03:50;-1.60;95.60
23475;DHT22;11910;52.086;21.066;2022-12-18T15:06:16;-1.50;95.50
23475;DHT22;11910;52.086;21.066;2022-12-18T15:08:41;-1.50;95.40
23475;DHT22;11910;52.086;21.066;2022-12-18T15:13:52;-1.60;95.50
23475;DHT22;11910;52.086;21.066;2022-12-18T15:16:17;-1.60;95.30
23475;DHT22;11910;52.086;21.066;2022-12-18T15:18:43;-1.60;95.50
23475;DHT22;11910;52.086;21.066;2022-12-18T15:21:10;-1.60;95.20
23475;DHT22;11910;52.086;21.066;2022-12-18T15:26:12;-1.70;95.10
23475;DHT22;11910;52.086;21.066;2022-12-18T15:33:37;-1.80;95.40
23475;DHT22;11910;52.086;21.066;2022-12-18T15:36:04;-1.90;95.00
23475;DHT22;11910;52.086;21.066;2022-12-18T15:38:30;-2.00;94.80
23475;DHT22;11910;52.086;21.066;2022-12-18T15:40:56;-2.00;95.00
23475;DHT22;11910;52.086;21.066;2022-12-18T15:43:22;-2.00;95.50
23475;DHT22;11910;52.086;21.066;2022-12-18T15:46:04;-2.00;95.10
23475;DHT22;11910;52.086;21.066;2022-12-18T15:48:31;-1.90;95.30
23475;DHT22;11910;52.086;21.066;2022-12-18T15:50:57;-1.90;95.00
23475;DHT22;11910;52.086;21.066;2022-12-18T15:53:24;-2.00;95.20
23475;DHT22;11910;52.086;21.066;2022-12-18T15:55:50;-1.90;95.40
23475;DHT22;11910;52.086;21.066;2022-12-18T15:58:34;-2.00;95.40
23475;DHT22;11910;52.086;21.066;2022-12-18T16:01:00;-1.90;95.40
23475;DHT22;11910;52.086;21.066;2022-12-18T16:03:26;-1.90;95.20
23475;DHT22;11910;52.086;21.066;2022-12-18T16:05:52;-2.10;95.00
23475;DHT22;11910;52.086;21.066;2022-12-18T16:08:17;-2.10;95.10
23475;DHT22;11910;52.086;21.066;2022-12-18T16:10:43;-2.10;94.90
23475;DHT22;11910;52.086;21.066;2022-12-18T16:13:12;-2.20;95.20
23475;DHT22;11910;52.086;21.066;2022-12-18T16:15:40;-2.20;95.30
23475;DHT22;11910;52.086;21.066;2022-12-18T16:18:06;-2.30;95.40
23475;DHT22;11910;52.086;21.066;2022-12-18T16:20:32;-2.30;95.30
23475;DHT22;11910;52.086;21.066;2022-12-18T16:22:57;-2.30;95.70
23475;DHT22;11910;52.086;21.066;2022-12-18T16:25:24;-2.40;95.50
23475;DHT22;11910;52.086;21.066;2022-12-18T16:27:49;-2.40;95.80
23475;DHT22;11910;52.086;21.066;2022-12-18T16:30:16;-2.40;95.60
23475;DHT22;11910;52.086;21.066;2022-12-18T16:32:42;-2.50;95.70
23475;DHT22;11910;52.086;21.066;2022-12-18T16:35:09;-2.40;95.90
23475;DHT22;11910;52.086;21.066;2022-12-18T16:37:34;-2.40;96.30
23475;DHT22;11910;52.086;21.066;2022-12-18T16:40:00;-2.40;95.80
23475;DHT22;11910;52.086;21.066;2022-12-18T16:42:26;-2.40;95.70
23475;DHT22;11910;52.086;21.066;2022-12-18T16:44:51;-2.40;96.00
23475;DHT22;11910;52.086;21.066;2022-12-18T16:47:17;-2.40;96.30
23475;DHT22;11910;52.086;21.066;2022-12-18T16:49:43;-2.30;96.20
23475;DHT22;11910;52.086;21.066;2022-12-18T16:52:15;-2.40;96.00
23475;DHT22;11910;52.086;21.066;2022-12-18T16:54:41;-2.40;95.70
23475;DHT22;11910;52.086;21.066;2022-12-18T16:57:08;-2.40;95.50
23475;DHT22;11910;52.086;21.066;2022-12-18T16:59:34;-2.40;95.70
23475;DHT22;11910;52.086;21.066;2022-12-18T17:01:59;-2.40;95.50
23475;DHT22;11910;52.086;21.066;2022-12-18T17:04:25;-2.40;95.90
23475;DHT22;11910;52.086;21.066;2022-12-18T17:06:50;-2.40;95.90
23475;DHT22;11910;52.086;21.066;2022-12-18T17:09:18;-2.40;95.80
23475;DHT22;11910;52.086;21.066;2022-12-18T17:11:50;-2.40;95.80
23475;DHT22;11910;52.086;21.066;2022-12-18T17:14:19;-2.40;96.00
23475;DHT22;11910;52.086;21.066;2022-12-18T17:16:45;-2.40;95.80
23475;DHT22;11910;52.086;21.066;2022-12-18T17:19:11;-2.40;95.70
23475;DHT22;11910;52.086;21.066;2022-12-18T17:21:37;-2.40;95.80